sensor_id;sensor_type;location;lat;lon;timestamp;P1;durP1;ratioP1;P2;durP2;ratioP2
18997;SDS011;9632;51.018;4.284;2023-09-18T00:00:22;8.18;;;5.43;;
18997;SDS011;9632;51.018;4.284;2023-09-18T00:02:48;8.80;;;5.20;;
18997;SDS011;9632;51.018;4.284;2023-09-18T00:05:14;6.38;;;4.50;;
18997;SDS011;9632;51.018;4.284;2023-09-18T00:07:41;7.05;;;5.03;;
18997;SDS011;9632;51.018;4.284;2023-09-18T00:10:08;6.45;;;4.72;;
18997;SDS011;9632;51.018;4.284;2023-09-18T00:12:37;9.05;;;5.32;;
18997;SDS011;9632;51.018;4.284;2023-09-18T00:15:04;8.98;;;5.10;;
18997;SDS011;9632;51.018;4.284;2023-09-18T00:17:31;8.02;;;4.72;;
18997;SDS011;9632;51.018;4.284;2023-09-18T00:19:57;7.75;;;4.88;;
18997;SDS011;9632;51.018;4.284;2023-09-18T00:22:23;7.15;;;4.93;;
18997;SDS011;9632;51.018;4.284;2023-09-18T00:24:49;5.95;;;5.10;;
18997;SDS011;9632;51.018;4.284;2023-09-18T00:27:15;8.23;;;5.25;;
18997;SDS011;9632;51.018;4.284;2023-09-18T00:29:41;9.52;;;5.97;;
18997;SDS011;9632;51.018;4.284;2023-09-18T00:32:07;8.95;;;5.65;;
18997;SDS011;9632;51.018;4.284;2023-09-18T00:34:33;8.38;;;5.90;;
18997;SDS011;9632;51.018;4.284;2023-09-18T00:36:58;9.98;;;5.65;;
18997;SDS011;9632;51.018;4.284;2023-09-18T00:39:24;8.48;;;5.07;;
18997;SDS011;9632;51.018;4.284;2023-09-18T00:41:50;10.70;;;5.55;;
18997;SDS011;9632;51.018;4.284;2023-09-18T00:44:19;10.52;;;6.25;;
18997;SDS011;9632;51.018;4.284;2023-09-18T00:46:46;8.57;;;5.72;;
18997;SDS011;9632;51.018;4.284;2023-09-18T00:49:11;13.10;;;6.25;;
18997;SDS011;9632;51.018;4.284;2023-09-18T00:51:38;11.60;;;6.57;;
18997;SDS011;9632;51.018;4.284;2023-09-18T00:54:04;13.43;;;6.70;;
18997;SDS011;9632;51.018;4.284;2023-09-18T00:56:32;13.82;;;6.40;;
18997;SDS011;9632;51.018;4.284;2023-09-18T00:58:59;11.45;;;6.95;;
18997;SDS011;9632;51.018;4.284;2023-09-18T01:01:26;14.82;;;6.50;;
18997;SDS011;9632;51.018;4.284;2023-09-18T01:03:52;11.52;;;6.13;;
18997;SDS011;9632;51.018;4.284;2023-09-18T01:06:18;12.48;;;6.18;;
18997;SDS011;9632;51.018;4.284;2023-09-18T01:08:45;12.35;;;6.00;;
18997;SDS011;9632;51.018;4.284;2023-09-18T01:11:31;16.00;;;5.70;;
18997;SDS011;9632;51.018;4.284;2023-09-18T01:14:19;9.32;;;5.70;;
18997;SDS011;9632;51.018;4.284;2023-09-18T01:16:53;10.15;;;5.30;;
18997;SDS011;9632;51.018;4.284;2023-09-18T01:19:40;9.98;;;5.43;;
18997;SDS011;9632;51.018;4.284;2023-09-18T01:22:09;8.88;;;5.35;;
18997;SDS011;9632;51.018;4.284;2023-09-18T01:24:36;9.93;;;5.25;;
18997;SDS011;9632;51.018;4.284;2023-09-18T01:27:03;7.97;;;4.85;;
18997;SDS011;9632;51.018;4.284;2023-09-18T01:29:29;8.10;;;5.32;;
18997;SDS011;9632;51.018;4.284;2023-09-18T01:31:56;13.48;;;5.78;;
18997;SDS011;9632;51.018;4.284;2023-09-18T01:34:24;8.48;;;5.05;;
18997;SDS011;9632;51.018;4.284;2023-09-18T01:36:53;9.38;;;5.50;;
18997;SDS011;9632;51.018;4.284;2023-09-18T01:39:22;12.32;;;6.00;;
18997;SDS011;9632;51.018;4.284;2023-09-18T01:41:49;7.35;;;4.72;;
18997;SDS011;9632;51.018;4.284;2023-09-18T01:44:15;11.35;;;5.45;;
18997;SDS011;9632;51.018;4.284;2023-09-18T01:46:41;9.00;;;4.70;;
18997;SDS011;9632;51.018;4.284;2023-09-18T01:49:09;7.57;;;4.85;;
18997;SDS011;9632;51.018;4.284;2023-09-18T01:51:35;6.40;;;4.63;;
18997;SDS011;9632;51.018;4.284;2023-09-18T01:54:01;6.80;;;4.18;;
18997;SDS011;9632;51.018;4.284;2023-09-18T01:56:26;8.10;;;4.47;;
18997;SDS011;9632;51.018;4.284;2023-09-18T01:58:52;7.32;;;4.18;;
18997;SDS011;9632;51.018;4.284;2023-09-18T02:01:18;10.32;;;4.60;;
18997;SDS011;9632;51.018;4.284;2023-09-18T02:03:43;6.82;;;4.30;;
18997;SDS011;9632;51.018;4.284;2023-09-18T02:06:10;7.63;;;4.03;;
18997;SDS011;9632;51.018;4.284;2023-09-18T02:08:36;10.10;;;4.57;;
18997;SDS011;9632;51.018;4.284;2023-09-18T02:11:02;8.55;;;4.50;;
18997;SDS011;9632;51.018;4.284;2023-09-18T02:13:28;7.72;;;4.60;;
18997;SDS011;9632;51.018;4.284;2023-09-18T02:15:54;7.32;;;4.00;;
18997;SDS011;9632;51.018;4.284;2023-09-18T02:18:20;7.70;;;3.72;;
18997;SDS011;9632;51.018;4.284;2023-09-18T02:20:46;6.72;;;3.55;;
18997;SDS011;9632;51.018;4.284;2023-09-18T02:23:14;7.85;;;4.00;;
18997;SDS011;9632;51.018;4.284;2023-09-18T02:25:40;8.30;;;3.78;;
18997;SDS011;9632;51.018;4.284;2023-09-18T02:28:06;8.23;;;3.63;;
18997;SDS011;9632;51.018;4.284;2023-09-18T02:30:32;8.35;;;4.03;;
18997;SDS011;9632;51.018;4.284;2023-09-18T02:32:58;8.75;;;4.18;;
18997;SDS011;9632;51.018;4.284;2023-09-18T02:35:24;6.85;;;3.55;;
18997;SDS011;9632;51.018;4.284;2023-09-18T02:37:50;8.82;;;4.15;;
18997;SDS011;9632;51.018;4.284;2023-09-18T02:40:17;7.07;;;3.50;;
18997;SDS011;9632;51.018;4.284;2023-09-18T02:42:42;7.53;;;4.18;;
18997;SDS011;9632;51.018;4.284;2023-09-18T02:45:08;9.65;;;4.53;;
18997;SDS011;9632;51.018;4.284;2023-09-18T02:47:34;6.03;;;3.90;;
18997;SDS011;9632;51.018;4.284;2023-09-18T02:50:02;10.00;;;4.70;;
18997;SDS011;9632;51.018;4.284;2023-09-18T02:52:30;7.30;;;3.90;;
18997;SDS011;9632;51.018;4.284;2023-09-18T02:54:56;9.07;;;4.53;;
18997;SDS011;9632;51.018;4.284;2023-09-18T02:57:22;10.70;;;4.18;;
18997;SDS011;9632;51.018;4.284;2023-09-18T02:59:47;11.48;;;4.53;;
18997;SDS011;9632;51.018;4.284;2023-09-18T03:02:13;8.80;;;4.07;;
18997;SDS011;9632;51.018;4.284;2023-09-18T03:04:39;7.32;;;4.05;;
18997;SDS011;9632;51.018;4.284;2023-09-18T03:07:05;9.63;;;4.50;;
18997;SDS011;9632;51.018;4.284;2023-09-18T03:09:30;8.85;;;4.75;;
18997;SDS011;9632;51.018;4.284;2023-09-18T03:11:56;10.48;;;4.90;;
18997;SDS011;9632;51.018;4.284;2023-09-18T03:14:21;11.63;;;4.45;;
18997;SDS011;9632;51.018;4.284;2023-09-18T03:16:47;8.57;;;4.47;;
18997;SDS011;9632;51.018;4.284;2023-09-18T03:19:13;8.80;;;4.70;;
18997;SDS011;9632;51.018;4.284;2023-09-18T03:21:38;11.27;;;3.78;;
18997;SDS011;9632;51.018;4.284;2023-09-18T03:24:04;8.60;;;3.25;;
18997;SDS011;9632;51.018;4.284;2023-09-18T03:26:30;10.55;;;3.40;;
18997;SDS011;9632;51.018;4.284;2023-09-18T03:28:56;5.25;;;2.70;;
18997;SDS011;9632;51.018;4.284;2023-09-18T03:31:21;5.25;;;2.78;;
18997;SDS011;9632;51.018;4.284;2023-09-18T03:33:47;7.97;;;2.45;;
18997;SDS011;9632;51.018;4.284;2023-09-18T03:36:13;4.68;;;2.25;;
18997;SDS011;9632;51.018;4.284;2023-09-18T03:38:39;7.13;;;2.60;;
18997;SDS011;9632;51.018;4.284;2023-09-18T03:41:05;4.50;;;2.28;;
18997;SDS011;9632;51.018;4.284;2023-09-18T03:43:30;6.00;;;2.58;;
18997;SDS011;9632;51.018;4.284;2023-09-18T03:46:05;5.20;;;2.50;;
18997;SDS011;9632;51.018;4.284;2023-09-18T03:48:32;8.27;;;2.45;;
18997;SDS011;9632;51.018;4.284;2023-09-18T03:51:05;7.82;;;2.40;;
18997;SDS011;9632;51.018;4.284;2023-09-18T03:53:32;9.75;;;2.88;;
18997;SDS011;9632;51.018;4.284;2023-09-18T03:55:58;5.03;;;2.63;;
18997;SDS011;9632;51.018;4.284;2023-09-18T03:58:24;6.47;;;2.58;;
18997;SDS011;9632;51.018;4.284;2023-09-18T04:00:50;6.57;;;2.67;;
18997;SDS011;9632;51.018;4.284;2023-09-18T04:03:16;7.93;;;2.45;;
18997;SDS011;9632;51.018;4.284;2023-09-18T04:05:42;5.97;;;2.60;;
18997;SDS011;9632;51.018;4.284;2023-09-18T04:08:07;6.25;;;2.22;;
18997;SDS011;9632;51.018;4.284;2023-09-18T04:10:34;6.22;;;2.28;;
18997;SDS011;9632;51.018;4.284;2023-09-18T04:12:59;10.05;;;2.50;;
18997;SDS011;9632;51.018;4.284;2023-09-18T04:15:25;3.53;;;1.90;;
18997;SDS011;9632;51.018;4.284;2023-09-18T04:17:52;5.47;;;2.25;;
18997;SDS011;9632;51.018;4.284;2023-09-18T04:20:18;4.75;;;2.25;;
18997;SDS011;9632;51.018;4.284;2023-09-18T04:22:44;3.15;;;1.98;;
18997;SDS011;9632;51.018;4.284;2023-09-18T04:25:15;5.65;;;1.95;;
18997;SDS011;9632;51.018;4.284;2023-09-18T04:27:41;4.80;;;2.30;;
18997;SDS011;9632;51.018;4.284;2023-09-18T04:30:07;6.28;;;2.25;;
18997;SDS011;9632;51.018;4.284;2023-09-18T04:32:35;5.45;;;2.30;;
18997;SDS011;9632;51.018;4.284;2023-09-18T04:35:01;4.97;;;1.80;;
18997;SDS011;9632;51.018;4.284;2023-09-18T04:37:27;6.10;;;1.92;;
18997;SDS011;9632;51.018;4.284;2023-09-18T04:39:52;5.22;;;2.17;;
18997;SDS011;9632;51.018;4.284;2023-09-18T04:42:18;3.65;;;1.85;;
18997;SDS011;9632;51.018;4.284;2023-09-18T04:44:44;3.42;;;2.00;;
18997;SDS011;9632;51.018;4.284;2023-09-18T04:47:09;5.32;;;2.15;;
18997;SDS011;9632;51.018;4.284;2023-09-18T04:49:35;5.82;;;2.08;;
18997;SDS011;9632;51.018;4.284;2023-09-18T04:52:00;7.95;;;1.92;;
18997;SDS011;9632;51.018;4.284;2023-09-18T04:54:26;6.93;;;2.00;;
18997;SDS011;9632;51.018;4.284;2023-09-18T04:56:52;9.95;;;1.73;;
18997;SDS011;9632;51.018;4.284;2023-09-18T04:59:17;5.15;;;1.85;;
18997;SDS011;9632;51.018;4.284;2023-09-18T05:01:43;4.32;;;2.00;;
18997;SDS011;9632;51.018;4.284;2023-09-18T05:04:09;5.82;;;1.73;;
18997;SDS011;9632;51.018;4.284;2023-09-18T05:06:35;5.70;;;1.58;;
18997;SDS011;9632;51.018;4.284;2023-09-18T05:09:03;3.05;;;1.52;;
18997;SDS011;9632;51.018;4.284;2023-09-18T05:11:29;6.65;;;1.63;;
18997;SDS011;9632;51.018;4.284;2023-09-18T05:13:55;5.93;;;1.60;;
18997;SDS011;9632;51.018;4.284;2023-09-18T05:16:20;3.08;;;1.33;;
18997;SDS011;9632;51.018;4.284;2023-09-18T05:18:46;4.68;;;1.50;;
18997;SDS011;9632;51.018;4.284;2023-09-18T05:21:11;4.18;;;1.30;;
18997;SDS011;9632;51.018;4.284;2023-09-18T05:23:37;4.30;;;1.30;;
18997;SDS011;9632;51.018;4.284;2023-09-18T05:26:03;3.38;;;1.40;;
18997;SDS011;9632;51.018;4.284;2023-09-18T05:28:29;5.75;;;1.40;;
18997;SDS011;9632;51.018;4.284;2023-09-18T05:30:55;7.75;;;1.70;;
18997;SDS011;9632;51.018;4.284;2023-09-18T05:33:21;4.82;;;1.50;;
18997;SDS011;9632;51.018;4.284;2023-09-18T05:35:46;5.90;;;1.83;;
18997;SDS011;9632;51.018;4.284;2023-09-18T05:38:13;6.07;;;1.38;;
18997;SDS011;9632;51.018;4.284;2023-09-18T05:40:42;4.13;;;1.70;;
18997;SDS011;9632;51.018;4.284;2023-09-18T05:43:08;3.08;;;1.25;;
18997;SDS011;9632;51.018;4.284;2023-09-18T05:45:35;6.47;;;1.95;;
18997;SDS011;9632;51.018;4.284;2023-09-18T05:48:00;4.32;;;1.33;;
18997;SDS011;9632;51.018;4.284;2023-09-18T05:50:29;5.28;;;1.55;;
18997;SDS011;9632;51.018;4.284;2023-09-18T05:52:56;6.93;;;1.38;;
18997;SDS011;9632;51.018;4.284;2023-09-18T05:55:25;2.13;;;1.40;;
18997;SDS011;9632;51.018;4.284;2023-09-18T05:57:54;4.13;;;1.48;;
18997;SDS011;9632;51.018;4.284;2023-09-18T06:00:20;4.40;;;1.50;;
18997;SDS011;9632;51.018;4.284;2023-09-18T06:02:46;3.50;;;1.60;;
18997;SDS011;9632;51.018;4.284;2023-09-18T06:05:13;5.97;;;1.40;;
18997;SDS011;9632;51.018;4.284;2023-09-18T06:07:41;5.60;;;1.45;;
18997;SDS011;9632;51.018;4.284;2023-09-18T06:10:07;3.90;;;1.58;;
18997;SDS011;9632;51.018;4.284;2023-09-18T06:12:33;5.10;;;1.52;;
18997;SDS011;9632;51.018;4.284;2023-09-18T06:14:58;4.28;;;1.30;;
18997;SDS011;9632;51.018;4.284;2023-09-18T06:17:24;5.97;;;1.75;;
18997;SDS011;9632;51.018;4.284;2023-09-18T06:19:50;4.95;;;1.48;;
18997;SDS011;9632;51.018;4.284;2023-09-18T06:22:15;3.53;;;1.70;;
18997;SDS011;9632;51.018;4.284;2023-09-18T06:24:41;2.92;;;1.30;;
18997;SDS011;9632;51.018;4.284;2023-09-18T06:27:07;4.22;;;1.45;;
18997;SDS011;9632;51.018;4.284;2023-09-18T06:29:33;3.00;;;1.60;;
18997;SDS011;9632;51.018;4.284;2023-09-18T06:31:59;5.20;;;1.60;;
18997;SDS011;9632;51.018;4.284;2023-09-18T06:34:25;6.93;;;1.63;;
18997;SDS011;9632;51.018;4.284;2023-09-18T06:36:51;5.57;;;1.55;;
18997;SDS011;9632;51.018;4.284;2023-09-18T06:39:17;3.75;;;1.95;;
18997;SDS011;9632;51.018;4.284;2023-09-18T06:41:42;5.35;;;1.40;;
18997;SDS011;9632;51.018;4.284;2023-09-18T06:44:08;4.47;;;1.65;;
18997;SDS011;9632;51.018;4.284;2023-09-18T06:46:34;5.22;;;1.42;;
18997;SDS011;9632;51.018;4.284;2023-09-18T06:49:00;3.90;;;1.98;;
18997;SDS011;9632;51.018;4.284;2023-09-18T06:51:26;6.10;;;1.83;;
18997;SDS011;9632;51.018;4.284;2023-09-18T06:53:53;5.22;;;1.70;;
18997;SDS011;9632;51.018;4.284;2023-09-18T06:56:19;5.78;;;2.00;;
18997;SDS011;9632;51.018;4.284;2023-09-18T06:58:44;4.80;;;1.65;;
18997;SDS011;9632;51.018;4.284;2023-09-18T07:01:12;5.38;;;2.00;;
18997;SDS011;9632;51.018;4.284;2023-09-18T07:03:40;6.72;;;2.10;;
18997;SDS011;9632;51.018;4.284;2023-09-18T07:06:05;3.85;;;1.80;;
18997;SDS011;9632;51.018;4.284;2023-09-18T07:08:31;4.35;;;2.10;;
18997;SDS011;9632;51.018;4.284;2023-09-18T07:10:57;6.22;;;2.20;;
18997;SDS011;9632;51.018;4.284;2023-09-18T07:13:23;5.25;;;2.00;;
18997;SDS011;9632;51.018;4.284;2023-09-18T07:15:49;7.40;;;2.28;;
18997;SDS011;9632;51.018;4.284;2023-09-18T07:18:15;6.75;;;2.20;;
18997;SDS011;9632;51.018;4.284;2023-09-18T07:20:41;7.50;;;2.53;;
18997;SDS011;9632;51.018;4.284;2023-09-18T07:23:08;8.75;;;2.40;;
18997;SDS011;9632;51.018;4.284;2023-09-18T07:25:34;5.63;;;2.20;;
18997;SDS011;9632;51.018;4.284;2023-09-18T07:27:59;5.78;;;2.47;;
18997;SDS011;9632;51.018;4.284;2023-09-18T07:30:25;8.70;;;2.72;;
18997;SDS011;9632;51.018;4.284;2023-09-18T07:32:54;8.23;;;2.40;;
18997;SDS011;9632;51.018;4.284;2023-09-18T07:35:22;4.63;;;2.10;;
18997;SDS011;9632;51.018;4.284;2023-09-18T07:37:48;6.05;;;2.20;;
18997;SDS011;9632;51.018;4.284;2023-09-18T07:40:13;5.93;;;2.42;;
18997;SDS011;9632;51.018;4.284;2023-09-18T07:42:40;6.00;;;2.28;;
18997;SDS011;9632;51.018;4.284;2023-09-18T07:45:08;6.25;;;2.70;;
18997;SDS011;9632;51.018;4.284;2023-09-18T07:47:34;9.30;;;2.28;;
18997;SDS011;9632;51.018;4.284;2023-09-18T07:50:00;7.00;;;2.28;;
18997;SDS011;9632;51.018;4.284;2023-09-18T07:52:26;9.65;;;2.70;;
18997;SDS011;9632;51.018;4.284;2023-09-18T07:54:52;6.03;;;2.60;;
18997;SDS011;9632;51.018;4.284;2023-09-18T07:57:17;7.07;;;2.50;;
18997;SDS011;9632;51.018;4.284;2023-09-18T07:59:44;8.05;;;2.13;;
18997;SDS011;9632;51.018;4.284;2023-09-18T08:02:11;5.05;;;2.08;;
18997;SDS011;9632;51.018;4.284;2023-09-18T08:04:37;5.70;;;2.28;;
18997;SDS011;9632;51.018;4.284;2023-09-18T08:07:03;7.35;;;2.00;;
18997;SDS011;9632;51.018;4.284;2023-09-18T08:09:32;9.63;;;2.60;;
18997;SDS011;9632;51.018;4.284;2023-09-18T08:12:01;7.60;;;2.65;;
18997;SDS011;9632;51.018;4.284;2023-09-18T08:14:30;5.60;;;2.40;;
18997;SDS011;9632;51.018;4.284;2023-09-18T08:16:56;7.22;;;2.33;;
18997;SDS011;9632;51.018;4.284;2023-09-18T08:19:22;6.20;;;2.53;;
18997;SDS011;9632;51.018;4.284;2023-09-18T08:21:48;10.80;;;2.53;;
18997;SDS011;9632;51.018;4.284;2023-09-18T08:24:14;10.10;;;3.00;;
18997;SDS011;9632;51.018;4.284;2023-09-18T08:26:39;10.48;;;2.42;;
18997;SDS011;9632;51.018;4.284;2023-09-18T08:29:05;7.03;;;2.70;;
18997;SDS011;9632;51.018;4.284;2023-09-18T08:31:31;5.65;;;2.50;;
18997;SDS011;9632;51.018;4.284;2023-09-18T08:33:57;9.82;;;2.20;;
18997;SDS011;9632;51.018;4.284;2023-09-18T08:36:22;5.05;;;2.50;;
18997;SDS011;9632;51.018;4.284;2023-09-18T08:38:48;10.98;;;2.42;;
18997;SDS011;9632;51.018;4.284;2023-09-18T08:41:14;7.55;;;2.42;;
18997;SDS011;9632;51.018;4.284;2023-09-18T08:43:44;8.57;;;2.70;;
18997;SDS011;9632;51.018;4.284;2023-09-18T08:46:10;7.30;;;2.42;;
18997;SDS011;9632;51.018;4.284;2023-09-18T08:48:37;10.15;;;2.97;;
18997;SDS011;9632;51.018;4.284;2023-09-18T08:51:04;9.73;;;2.78;;
18997;SDS011;9632;51.018;4.284;2023-09-18T08:53:31;10.10;;;2.85;;
18997;SDS011;9632;51.018;4.284;2023-09-18T08:55:59;10.70;;;2.90;;
18997;SDS011;9632;51.018;4.284;2023-09-18T08:58:27;7.95;;;2.90;;
18997;SDS011;9632;51.018;4.284;2023-09-18T09:00:56;9.32;;;3.25;;
18997;SDS011;9632;51.018;4.284;2023-09-18T09:03:26;7.97;;;3.05;;
18997;SDS011;9632;51.018;4.284;2023-09-18T09:05:52;7.78;;;2.67;;
18997;SDS011;9632;51.018;4.284;2023-09-18T09:08:22;7.93;;;2.90;;
18997;SDS011;9632;51.018;4.284;2023-09-18T09:10:48;6.85;;;2.70;;
18997;SDS011;9632;51.018;4.284;2023-09-18T09:13:15;11.75;;;3.08;;
18997;SDS011;9632;51.018;4.284;2023-09-18T09:15:44;10.10;;;3.33;;
18997;SDS011;9632;51.018;4.284;2023-09-18T09:18:11;7.78;;;3.00;;
18997;SDS011;9632;51.018;4.284;2023-09-18T09:20:39;7.68;;;2.70;;
18997;SDS011;9632;51.018;4.284;2023-09-18T09:23:07;9.10;;;2.85;;
18997;SDS011;9632;51.018;4.284;2023-09-18T09:25:34;5.93;;;2.67;;
18997;SDS011;9632;51.018;4.284;2023-09-18T09:28:05;6.93;;;2.88;;
18997;SDS011;9632;51.018;4.284;2023-09-18T09:30:32;7.03;;;2.88;;
18997;SDS011;9632;51.018;4.284;2023-09-18T09:33:00;6.38;;;2.72;;
18997;SDS011;9632;51.018;4.284;2023-09-18T09:35:28;7.60;;;3.30;;
18997;SDS011;9632;51.018;4.284;2023-09-18T09:38:08;10.43;;;3.25;;
18997;SDS011;9632;51.018;4.284;2023-09-18T09:40:36;6.95;;;2.83;;
18997;SDS011;9632;51.018;4.284;2023-09-18T09:43:08;9.95;;;2.50;;
18997;SDS011;9632;51.018;4.284;2023-09-18T09:45:35;6.07;;;2.90;;
18997;SDS011;9632;51.018;4.284;2023-09-18T09:48:05;8.63;;;3.45;;
18997;SDS011;9632;51.018;4.284;2023-09-18T09:50:31;5.07;;;2.83;;
18997;SDS011;9632;51.018;4.284;2023-09-18T09:52:58;5.70;;;2.72;;
18997;SDS011;9632;51.018;4.284;2023-09-18T09:55:31;6.75;;;2.40;;
18997;SDS011;9632;51.018;4.284;2023-09-18T09:58:01;11.10;;;2.92;;
18997;SDS011;9632;51.018;4.284;2023-09-18T10:03:01;5.97;;;2.78;;
18997;SDS011;9632;51.018;4.284;2023-09-18T10:05:32;7.35;;;2.90;;
18997;SDS011;9632;51.018;4.284;2023-09-18T10:08:02;9.07;;;3.40;;
18997;SDS011;9632;51.018;4.284;2023-09-18T10:10:35;10.50;;;3.20;;
18997;SDS011;9632;51.018;4.284;2023-09-18T10:13:06;10.40;;;3.13;;
18997;SDS011;9632;51.018;4.284;2023-09-18T10:15:34;7.68;;;2.92;;
18997;SDS011;9632;51.018;4.284;2023-09-18T10:18:04;10.18;;;3.42;;
18997;SDS011;9632;51.018;4.284;2023-09-18T10:20:33;9.05;;;3.25;;
18997;SDS011;9632;51.018;4.284;2023-09-18T10:23:06;11.65;;;3.50;;
18997;SDS011;9632;51.018;4.284;2023-09-18T10:25:35;10.45;;;3.30;;
18997;SDS011;9632;51.018;4.284;2023-09-18T10:28:01;7.07;;;3.05;;
18997;SDS011;9632;51.018;4.284;2023-09-18T10:30:29;7.78;;;3.00;;
18997;SDS011;9632;51.018;4.284;2023-09-18T10:32:57;10.38;;;3.53;;
18997;SDS011;9632;51.018;4.284;2023-09-18T10:35:26;9.35;;;3.42;;
18997;SDS011;9632;51.018;4.284;2023-09-18T10:37:53;8.43;;;3.17;;
18997;SDS011;9632;51.018;4.284;2023-09-18T10:40:20;9.02;;;2.92;;
18997;SDS011;9632;51.018;4.284;2023-09-18T10:42:47;6.38;;;2.55;;
18997;SDS011;9632;51.018;4.284;2023-09-18T10:45:15;6.28;;;2.33;;
18997;SDS011;9632;51.018;4.284;2023-09-18T10:47:42;5.95;;;2.85;;
18997;SDS011;9632;51.018;4.284;2023-09-18T10:50:13;5.97;;;2.63;;
18997;SDS011;9632;51.018;4.284;2023-09-18T10:52:50;7.15;;;2.60;;
18997;SDS011;9632;51.018;4.284;2023-09-18T10:55:16;8.77;;;2.80;;
18997;SDS011;9632;51.018;4.284;2023-09-18T10:57:55;5.82;;;2.60;;
18997;SDS011;9632;51.018;4.284;2023-09-18T11:00:25;7.13;;;2.63;;
18997;SDS011;9632;51.018;4.284;2023-09-18T11:02:53;8.15;;;2.53;;
18997;SDS011;9632;51.018;4.284;2023-09-18T11:05:33;9.38;;;2.50;;
18997;SDS011;9632;51.018;4.284;2023-09-18T11:10:55;6.38;;;2.33;;
18997;SDS011;9632;51.018;4.284;2023-09-18T11:13:35;6.70;;;2.60;;
18997;SDS011;9632;51.018;4.284;2023-09-18T11:21:26;5.03;;;2.38;;
18997;SDS011;9632;51.018;4.284;2023-09-18T11:24:03;6.78;;;2.60;;
18997;SDS011;9632;51.018;4.284;2023-09-18T11:26:48;6.18;;;2.30;;
18997;SDS011;9632;51.018;4.284;2023-09-18T11:29:15;5.18;;;2.17;;
18997;SDS011;9632;51.018;4.284;2023-09-18T11:31:47;5.28;;;2.30;;
18997;SDS011;9632;51.018;4.284;2023-09-18T11:36:51;7.85;;;2.38;;
18997;SDS011;9632;51.018;4.284;2023-09-18T11:39:36;5.78;;;2.40;;
18997;SDS011;9632;51.018;4.284;2023-09-18T11:42:06;10.40;;;2.10;;
18997;SDS011;9632;51.018;4.284;2023-09-18T11:44:33;5.00;;;2.50;;
18997;SDS011;9632;51.018;4.284;2023-09-18T11:47:01;6.35;;;2.55;;
18997;SDS011;9632;51.018;4.284;2023-09-18T11:49:36;6.15;;;2.28;;
18997;SDS011;9632;51.018;4.284;2023-09-18T11:52:07;7.65;;;2.50;;
18997;SDS011;9632;51.018;4.284;2023-09-18T11:54:34;4.18;;;1.90;;
18997;SDS011;9632;51.018;4.284;2023-09-18T11:57:03;5.78;;;2.10;;
18997;SDS011;9632;51.018;4.284;2023-09-18T11:59:39;5.60;;;2.42;;
18997;SDS011;9632;51.018;4.284;2023-09-18T12:02:07;8.43;;;2.20;;
18997;SDS011;9632;51.018;4.284;2023-09-18T12:04:33;7.43;;;2.47;;
18997;SDS011;9632;51.018;4.284;2023-09-18T12:07:00;10.90;;;2.10;;
18997;SDS011;9632;51.018;4.284;2023-09-18T12:09:28;5.40;;;2.10;;
18997;SDS011;9632;51.018;4.284;2023-09-18T12:11:55;6.00;;;2.00;;
18997;SDS011;9632;51.018;4.284;2023-09-18T12:14:22;4.72;;;1.73;;
18997;SDS011;9632;51.018;4.284;2023-09-18T12:16:48;5.75;;;1.80;;
18997;SDS011;9632;51.018;4.284;2023-09-18T12:19:18;8.18;;;2.03;;
18997;SDS011;9632;51.018;4.284;2023-09-18T12:21:47;6.65;;;1.60;;
18997;SDS011;9632;51.018;4.284;2023-09-18T12:24:14;6.85;;;1.88;;
18997;SDS011;9632;51.018;4.284;2023-09-18T12:26:45;6.50;;;2.03;;
18997;SDS011;9632;51.018;4.284;2023-09-18T12:29:11;5.90;;;1.77;;
18997;SDS011;9632;51.018;4.284;2023-09-18T12:31:37;8.35;;;1.73;;
18997;SDS011;9632;51.018;4.284;2023-09-18T12:34:03;7.57;;;2.10;;
18997;SDS011;9632;51.018;4.284;2023-09-18T12:36:32;4.72;;;1.60;;
18997;SDS011;9632;51.018;4.284;2023-09-18T12:38:59;4.50;;;1.90;;
18997;SDS011;9632;51.018;4.284;2023-09-18T12:41:27;4.57;;;2.00;;
18997;SDS011;9632;51.018;4.284;2023-09-18T12:43:55;7.85;;;1.90;;
18997;SDS011;9632;51.018;4.284;2023-09-18T12:46:21;7.07;;;2.03;;
18997;SDS011;9632;51.018;4.284;2023-09-18T12:48:48;5.35;;;1.98;;
18997;SDS011;9632;51.018;4.284;2023-09-18T12:51:13;9.07;;;2.15;;
18997;SDS011;9632;51.018;4.284;2023-09-18T12:53:41;5.00;;;1.70;;
18997;SDS011;9632;51.018;4.284;2023-09-18T12:56:10;3.67;;;1.70;;
18997;SDS011;9632;51.018;4.284;2023-09-18T12:58:37;4.40;;;1.60;;
18997;SDS011;9632;51.018;4.284;2023-09-18T13:01:07;5.60;;;1.60;;
18997;SDS011;9632;51.018;4.284;2023-09-18T13:03:44;5.65;;;1.40;;
18997;SDS011;9632;51.018;4.284;2023-09-18T13:06:20;5.05;;;1.80;;
18997;SDS011;9632;51.018;4.284;2023-09-18T13:08:46;4.30;;;1.40;;
18997;SDS011;9632;51.018;4.284;2023-09-18T13:11:12;3.85;;;1.70;;
18997;SDS011;9632;51.018;4.284;2023-09-18T13:13:41;5.20;;;1.60;;
18997;SDS011;9632;51.018;4.284;2023-09-18T13:16:10;5.15;;;1.50;;
18997;SDS011;9632;51.018;4.284;2023-09-18T13:18:37;6.53;;;1.67;;
18997;SDS011;9632;51.018;4.284;2023-09-18T13:21:12;6.18;;;1.50;;
18997;SDS011;9632;51.018;4.284;2023-09-18T13:23:41;4.93;;;1.50;;
18997;SDS011;9632;51.018;4.284;2023-09-18T13:26:07;3.90;;;1.48;;
18997;SDS011;9632;51.018;4.284;2023-09-18T13:28:33;6.97;;;1.63;;
18997;SDS011;9632;51.018;4.284;2023-09-18T13:31:01;6.28;;;1.50;;
18997;SDS011;9632;51.018;4.284;2023-09-18T13:33:29;5.22;;;1.60;;
18997;SDS011;9632;51.018;4.284;2023-09-18T13:35:56;5.25;;;1.50;;
18997;SDS011;9632;51.018;4.284;2023-09-18T13:38:22;5.75;;;1.40;;
18997;SDS011;9632;51.018;4.284;2023-09-18T13:40:47;5.57;;;1.60;;
18997;SDS011;9632;51.018;4.284;2023-09-18T13:43:14;4.13;;;1.48;;
18997;SDS011;9632;51.018;4.284;2023-09-18T13:45:43;2.25;;;1.25;;
18997;SDS011;9632;51.018;4.284;2023-09-18T13:48:09;9.73;;;1.48;;
18997;SDS011;9632;51.018;4.284;2023-09-18T13:50:36;3.95;;;1.35;;
18997;SDS011;9632;51.018;4.284;2023-09-18T13:53:03;6.53;;;1.17;;
18997;SDS011;9632;51.018;4.284;2023-09-18T13:55:29;6.97;;;1.40;;
18997;SDS011;9632;51.018;4.284;2023-09-18T13:57:55;5.18;;;1.40;;
18997;SDS011;9632;51.018;4.284;2023-09-18T14:00:21;8.57;;;1.65;;
18997;SDS011;9632;51.018;4.284;2023-09-18T14:02:48;4.60;;;1.30;;
18997;SDS011;9632;51.018;4.284;2023-09-18T14:05:13;7.13;;;1.60;;
18997;SDS011;9632;51.018;4.284;2023-09-18T14:07:40;3.38;;;1.50;;
18997;SDS011;9632;51.018;4.284;2023-09-18T14:10:06;5.10;;;1.30;;
18997;SDS011;9632;51.018;4.284;2023-09-18T14:12:33;9.27;;;1.40;;
18997;SDS011;9632;51.018;4.284;2023-09-18T14:14:58;4.18;;;1.40;;
18997;SDS011;9632;51.018;4.284;2023-09-18T14:17:25;6.35;;;1.38;;
18997;SDS011;9632;51.018;4.284;2023-09-18T14:19:51;2.85;;;1.55;;
18997;SDS011;9632;51.018;4.284;2023-09-18T14:22:18;22.55;;;2.25;;
18997;SDS011;9632;51.018;4.284;2023-09-18T14:24:44;5.25;;;1.60;;
18997;SDS011;9632;51.018;4.284;2023-09-18T14:27:10;3.90;;;2.00;;
18997;SDS011;9632;51.018;4.284;2023-09-18T14:29:37;4.72;;;1.70;;
18997;SDS011;9632;51.018;4.284;2023-09-18T14:32:03;2.97;;;1.35;;
18997;SDS011;9632;51.018;4.284;2023-09-18T14:34:29;4.70;;;1.73;;
18997;SDS011;9632;51.018;4.284;2023-09-18T14:37:00;5.05;;;1.80;;
18997;SDS011;9632;51.018;4.284;2023-09-18T14:39:29;3.95;;;1.65;;
18997;SDS011;9632;51.018;4.284;2023-09-18T14:41:56;6.65;;;1.90;;
18997;SDS011;9632;51.018;4.284;2023-09-18T14:44:21;3.97;;;1.60;;
18997;SDS011;9632;51.018;4.284;2023-09-18T14:46:47;6.35;;;2.00;;
18997;SDS011;9632;51.018;4.284;2023-09-18T14:49:14;8.32;;;2.00;;
18997;SDS011;9632;51.018;4.284;2023-09-18T14:51:39;3.30;;;1.88;;
18997;SDS011;9632;51.018;4.284;2023-09-18T14:54:05;7.28;;;2.20;;
18997;SDS011;9632;51.018;4.284;2023-09-18T14:56:33;6.20;;;2.00;;
18997;SDS011;9632;51.018;4.284;2023-09-18T14:59:00;4.63;;;1.90;;
18997;SDS011;9632;51.018;4.284;2023-09-18T15:01:26;6.95;;;1.88;;
18997;SDS011;9632;51.018;4.284;2023-09-18T15:03:52;3.38;;;1.67;;
18997;SDS011;9632;51.018;4.284;2023-09-18T15:06:17;2.75;;;1.60;;
18997;SDS011;9632;51.018;4.284;2023-09-18T15:08:43;3.40;;;1.90;;
18997;SDS011;9632;51.018;4.284;2023-09-18T15:11:09;4.45;;;1.90;;
18997;SDS011;9632;51.018;4.284;2023-09-18T15:13:36;5.10;;;1.90;;